createdAt,value
2023-03-07T00:02:42.322Z,8.45
2023-03-07T00:08:10.587Z,7.97
2023-03-07T00:13:39.506Z,7.82
2023-03-07T00:19:09.578Z,7.93
2023-03-07T00:24:33.369Z,7.05
2023-03-07T00:30:01.885Z,7.32
2023-03-07T00:35:28.942Z,7.88
2023-03-07T00:40:59.380Z,6.93
2023-03-07T00:46:24.469Z,6.47
2023-03-07T00:51:54.080Z,6.73
2023-03-07T00:57:22.734Z,7.20
2023-03-07T01:02:50.040Z,7.40
2023-03-07T01:08:17.119Z,8.52
2023-03-07T01:13:45.643Z,7.93
2023-03-07T01:19:14.444Z,9.38
2023-03-07T01:24:43.054Z,8.63
2023-03-07T01:30:11.937Z,9.27
2023-03-07T01:35:38.173Z,8.02
2023-03-07T01:41:07.876Z,9.57
2023-03-07T01:46:44.164Z,8.65
2023-03-07T01:52:16.461Z,10.10
2023-03-07T01:57:50.895Z,8.23
2023-03-07T02:03:20.850Z,9.60
2023-03-07T02:08:50.728Z,9.73
2023-03-07T02:14:20.912Z,8.38
2023-03-07T02:19:55.097Z,9.00
2023-03-07T02:25:29.073Z,8.60
2023-03-07T02:31:00.232Z,7.35
2023-03-07T02:36:27.870Z,8.88
2023-03-07T02:42:12.455Z,7.88
2023-03-07T02:47:50.071Z,7.38
2023-03-07T02:53:19.308Z,7.38
2023-03-07T02:58:47.582Z,7.80
2023-03-07T03:04:17.167Z,8.18
2023-03-07T03:09:41.404Z,7.75
2023-03-07T03:15:10.074Z,7.50
2023-03-07T03:20:36.753Z,7.90
2023-03-07T03:26:00.421Z,7.45
2023-03-07T03:31:26.154Z,7.13
2023-03-07T03:36:51.090Z,7.65
2023-03-07T03:42:14.369Z,7.65
2023-03-07T03:47:37.828Z,7.90
2023-03-07T03:53:02.783Z,7.95
2023-03-07T03:58:25.771Z,8.18
2023-03-07T04:03:48.884Z,7.75
2023-03-07T04:09:14.018Z,7.70
2023-03-07T04:14:41.042Z,7.10
2023-03-07T04:20:05.184Z,8.38
2023-03-07T04:25:30.773Z,6.97
2023-03-07T04:30:53.937Z,8.63
2023-03-07T04:36:17.627Z,8.25
2023-03-07T04:41:42.245Z,8.25
2023-03-07T04:47:13.123Z,8.18
2023-03-07T04:52:41.863Z,8.43
2023-03-07T04:58:05.945Z,9.30
2023-03-07T05:03:30.031Z,8.55
2023-03-07T05:08:53.959Z,10.48
2023-03-07T05:14:23.976Z,10.70
2023-03-07T05:19:55.932Z,12.73
2023-03-07T05:25:24.853Z,11.75
2023-03-07T05:30:53.303Z,12.00
2023-03-07T05:36:22.870Z,14.13
2023-03-07T05:41:51.897Z,15.50
2023-03-07T05:47:21.851Z,13.20
2023-03-07T05:58:15.246Z,10.77
2023-03-07T06:03:48.928Z,10.50
2023-03-07T06:09:12.472Z,11.32
2023-03-07T06:14:41.612Z,10.90
2023-03-07T06:20:12.810Z,11.98
2023-03-07T06:25:35.379Z,13.02
2023-03-07T06:31:02.137Z,12.15
2023-03-07T06:36:32.378Z,10.77
2023-03-07T06:42:02.771Z,11.27
2023-03-07T06:47:31.820Z,9.37
2023-03-07T06:52:56.748Z,10.75
2023-03-07T06:58:20.827Z,13.07
2023-03-07T07:03:44.217Z,11.90
2023-03-07T07:09:14.627Z,11.43
2023-03-07T07:14:43.385Z,11.07
2023-03-07T07:20:12.362Z,10.85
2023-03-07T07:25:38.760Z,10.15
2023-03-07T07:31:08.244Z,11.70
2023-03-07T07:36:32.627Z,12.80
2023-03-07T07:41:57.213Z,11.18
2023-03-07T07:47:23.826Z,11.30
2023-03-07T07:52:50.814Z,10.63
2023-03-07T07:58:17.290Z,10.35
2023-03-07T08:03:44.675Z,10.30
2023-03-07T08:09:09.169Z,11.52
2023-03-07T08:14:36.615Z,11.05
2023-03-07T08:25:37.812Z,10.98
2023-03-07T08:31:09.421Z,10.52
2023-03-07T08:36:32.717Z,10.38
2023-03-07T08:42:01.808Z,9.93
2023-03-07T08:47:29.880Z,8.80
2023-03-07T08:52:58.786Z,8.00
2023-03-07T08:58:27.547Z,9.53
2023-03-07T09:03:58.101Z,9.93
2023-03-07T09:09:22.143Z,9.93
2023-03-07T09:14:50.603Z,10.23
2023-03-07T09:20:20.388Z,12.25
2023-03-07T09:25:44.597Z,10.25
2023-03-07T09:31:11.719Z,11.02
2023-03-07T09:36:42.184Z,10.70
2023-03-07T09:42:09.068Z,11.60
2023-03-07T09:47:39.299Z,10.68
2023-03-07T09:53:14.250Z,10.82
2023-03-07T09:58:44.444Z,10.90
2023-03-07T10:04:14.203Z,9.45
2023-03-07T10:09:44.860Z,9.68
2023-03-07T10:15:20.084Z,8.73
2023-03-07T10:20:50.052Z,8.85
2023-03-07T10:26:18.334Z,9.05
2023-03-07T10:31:42.652Z,9.20
2023-03-07T10:37:15.342Z,8.65
2023-03-07T10:42:45.123Z,8.05
2023-03-07T10:48:11.006Z,6.13
2023-03-07T10:53:40.528Z,7.30
2023-03-07T10:59:11.235Z,7.60
2023-03-07T11:04:47.230Z,7.18
2023-03-07T11:15:37.528Z,8.88
2023-03-07T11:21:06.219Z,9.18
2023-03-07T11:26:33.518Z,10.40
2023-03-07T11:32:07.438Z,10.90
2023-03-07T11:37:39.381Z,14.23
2023-03-07T11:43:14.997Z,10.35
2023-03-07T11:48:52.277Z,11.57
2023-03-07T11:54:26.729Z,10.70
2023-03-07T12:00:04.435Z,10.83
2023-03-07T12:05:43.813Z,9.52
2023-03-07T12:11:20.311Z,9.48
2023-03-07T12:16:53.786Z,9.30
2023-03-07T12:22:27.101Z,10.33
2023-03-07T12:27:51.613Z,8.60
2023-03-07T12:33:22.845Z,9.85
2023-03-07T12:38:51.625Z,10.27
2023-03-07T12:44:23.062Z,9.63
2023-03-07T12:49:55.127Z,8.45
2023-03-07T12:55:24.272Z,8.50
2023-03-07T13:00:50.352Z,9.35
2023-03-07T13:06:17.336Z,8.77
2023-03-07T13:12:05.653Z,8.20
2023-03-07T13:17:54.099Z,8.20
2023-03-07T13:23:28.768Z,12.95
2023-03-07T13:28:53.488Z,8.82
2023-03-07T13:34:41.533Z,7.38
2023-03-07T13:40:23.829Z,7.32
2023-03-07T13:45:52.842Z,8.82
2023-03-07T13:51:21.974Z,7.65
2023-03-07T13:56:46.557Z,7.72
2023-03-07T14:02:14.152Z,7.70
2023-03-07T14:07:41.311Z,7.63
2023-03-07T14:13:15.841Z,7.22
2023-03-07T14:18:49.527Z,6.70
2023-03-07T14:24:26.530Z,7.78
2023-03-07T14:29:57.173Z,7.78
2023-03-07T14:35:36.820Z,8.18
2023-03-07T14:41:19.728Z,7.30
2023-03-07T14:46:49.684Z,6.73
2023-03-07T14:52:29.914Z,7.60
2023-03-07T14:57:57.406Z,6.82
2023-03-07T15:03:27.243Z,7.95
2023-03-07T15:08:56.376Z,7.82
2023-03-07T15:14:21.238Z,7.30
2023-03-07T15:19:54.952Z,7.93
2023-03-07T15:25:22.670Z,7.72
2023-03-07T15:30:53.582Z,7.35
2023-03-07T15:36:20.999Z,5.80
2023-03-07T15:41:59.821Z,6.03
2023-03-07T15:47:23.856Z,7.32
2023-03-07T15:52:52.244Z,6.97
2023-03-07T15:58:21.676Z,6.07
2023-03-07T16:03:49.697Z,9.13
2023-03-07T16:09:19.130Z,9.57
2023-03-07T16:14:48.543Z,9.20
2023-03-07T16:20:17.612Z,13.93
2023-03-07T16:25:43.968Z,11.10
2023-03-07T16:31:13.000Z,12.13
2023-03-07T16:36:40.156Z,11.32
2023-03-07T16:42:06.787Z,18.42
2023-03-07T16:47:31.214Z,17.60
2023-03-07T16:52:54.471Z,16.27
2023-03-07T16:58:26.286Z,21.95
2023-03-07T17:03:52.893Z,18.27
2023-03-07T17:09:15.965Z,17.33
2023-03-07T17:14:46.355Z,18.03
2023-03-07T17:20:13.097Z,17.60
2023-03-07T17:25:41.973Z,18.05
2023-03-07T17:31:06.563Z,14.35
2023-03-07T17:36:34.992Z,20.58
2023-03-07T17:42:04.295Z,24.23
2023-03-07T17:47:34.156Z,30.80
2023-03-07T17:53:02.905Z,32.95
2023-03-07T17:58:27.769Z,27.95
2023-03-07T18:03:58.420Z,20.27
2023-03-07T18:09:23.356Z,15.50
2023-03-07T18:14:51.728Z,15.73
2023-03-07T18:20:22.509Z,16.52
2023-03-07T18:25:46.885Z,16.88
2023-03-07T18:31:16.808Z,22.83
2023-03-07T18:36:44.818Z,23.48
2023-03-07T18:42:07.729Z,22.00
2023-03-07T18:47:34.001Z,20.35
2023-03-07T18:53:04.448Z,20.47
2023-03-07T18:58:33.888Z,19.42
2023-03-07T19:09:31.331Z,17.08
2023-03-07T19:14:59.621Z,17.48
2023-03-07T19:20:24.793Z,17.85
2023-03-07T19:25:55.439Z,18.05
2023-03-07T19:36:46.629Z,16.40
2023-03-07T19:42:13.936Z,17.88
2023-03-07T19:47:37.163Z,18.30
2023-03-07T19:53:05.734Z,18.58
2023-03-07T19:58:36.510Z,18.35
2023-03-07T20:04:04.802Z,19.20
2023-03-07T20:09:34.035Z,18.92
2023-03-07T20:14:59.308Z,19.52
2023-03-07T20:20:27.027Z,21.02
2023-03-07T20:25:56.177Z,20.50
2023-03-07T20:31:26.718Z,22.20
2023-03-07T20:36:50.481Z,29.90
2023-03-07T20:42:18.581Z,29.70
2023-03-07T20:47:42.876Z,27.45
2023-03-07T20:53:12.085Z,28.40
2023-03-07T20:58:37.248Z,33.65
2023-03-07T21:04:09.322Z,32.75
2023-03-07T21:09:37.828Z,29.73
2023-03-07T21:15:08.189Z,31.75
2023-03-07T21:20:40.543Z,31.85
2023-03-07T21:26:03.855Z,33.60
2023-03-07T21:31:33.702Z,36.55
2023-03-07T21:37:00.735Z,36.50
2023-03-07T21:47:58.009Z,28.40
2023-03-07T21:53:23.943Z,25.75
2023-03-07T21:58:48.616Z,33.45
2023-03-07T22:04:13.891Z,29.23
2023-03-07T22:09:44.324Z,29.58
2023-03-07T22:15:12.965Z,29.92
2023-03-07T22:20:42.312Z,46.10
2023-03-07T22:26:12.858Z,49.35
2023-03-07T22:31:41.967Z,44.30
2023-03-07T22:37:08.070Z,40.95
2023-03-07T22:42:36.001Z,36.38
2023-03-07T22:48:04.980Z,35.08
2023-03-07T22:53:32.807Z,40.90
2023-03-07T22:58:57.074Z,37.95
2023-03-07T23:04:25.803Z,37.30
2023-03-07T23:09:54.541Z,35.17
2023-03-07T23:15:19.557Z,35.63
2023-03-07T23:20:47.960Z,34.83
2023-03-07T23:26:18.229Z,35.13
2023-03-07T23:37:13.520Z,27.27
2023-03-07T23:48:09.786Z,30.30
2023-03-07T23:53:39.380Z,30.17
2023-03-07T23:59:06.853Z,30.83
